Time;durP1;ratioP1;P1;durP2;ratioP2;P2;SDS_P1;SDS_P2;PMS_P1;PMS_P2;Temp;Humidity;BMP_temperature;BMP_pressure;BME280_temperature;BME280_humidity;BME280_pressure;Samples;Min_cycle;Max_cycle;Signal;HPM_P1;HPM_P2
2021/09/23 00:01:46;;;;;;;51.38;27.75;;;13.50;95.20;;;11.49;100.00;101244.28;5030587;28;20041;-72
2021/09/23 00:04:31;;;;;;;46.97;26.38;;;13.50;95.20;;;11.52;100.00;101244.78;5030582;28;20045;-72
2021/09/23 00:06:59;;;;;;;43.78;24.25;;;13.50;95.20;;;11.52;100.00;101242.06;5029981;28;20421;-72
2021/09/23 00:09:26;;;;;;;46.50;25.98;;;13.50;95.10;;;11.48;100.00;101250.72;5012350;28;20776;-72
2021/09/23 00:11:54;;;;;;;49.90;26.40;;;13.50;95.10;;;11.45;100.00;101257.41;5030321;28;20041;-72
2021/09/23 00:14:21;;;;;;;51.65;27.02;;;13.50;95.10;;;11.46;100.00;101250.06;5030333;28;20124;-72
2021/09/23 00:16:49;;;;;;;53.33;26.38;;;13.50;95.10;;;11.47;100.00;101254.50;5012191;28;20103;-72
2021/09/23 00:19:18;;;;;;;49.75;25.40;;;13.50;95.10;;;11.46;100.00;101253.66;5029420;28;20112;-72
2021/09/23 00:21:45;;;;;;;48.53;25.48;;;13.50;95.20;;;11.46;100.00;101242.75;5030172;28;20056;-72
2021/09/23 00:24:12;;;;;;;45.20;24.77;;;13.50;95.20;;;11.46;100.00;101242.75;5029397;28;20080;-72
2021/09/23 00:26:40;;;;;;;52.65;25.60;;;13.50;95.20;;;11.46;100.00;101236.44;5030220;28;20049;-72
2021/09/23 00:29:07;;;;;;;42.67;24.05;;;13.50;95.30;;;11.39;100.00;101232.72;5011926;28;20076;-72
2021/09/23 00:31:35;;;;;;;50.88;26.80;;;13.50;95.20;;;11.44;100.00;101233.91;5012283;28;20065;-72
2021/09/23 00:34:03;;;;;;;49.78;25.88;;;13.50;95.30;;;11.46;100.00;101230.97;5011984;28;20064;-72
2021/09/23 00:36:32;;;;;;;44.05;24.95;;;13.50;95.40;;;11.54;100.00;101228.25;5012329;28;20049;-72
2021/09/23 00:39:00;;;;;;;42.67;24.67;;;13.50;95.40;;;11.55;100.00;101216.31;5011489;28;20132;-72
2021/09/23 00:41:27;;;;;;;39.45;22.10;;;13.60;95.40;;;11.52;100.00;101213.97;5011502;28;20053;-72
2021/09/23 00:43:55;;;;;;;41.00;23.38;;;13.60;95.20;;;11.54;100.00;101211.91;5029885;28;20741;-72
2021/09/23 00:46:22;;;;;;;40.70;22.67;;;13.60;95.30;;;11.57;100.00;101213.41;5012001;28;20053;-72
2021/09/23 00:48:51;;;;;;;43.15;23.75;;;13.60;95.30;;;11.56;100.00;101201.69;5011578;28;20054;-72
2021/09/23 00:51:19;;;;;;;45.00;24.63;;;13.60;95.40;;;11.58;100.00;101196.91;4995993;28;20045;-72
2021/09/23 00:53:49;;;;;;;41.20;22.52;;;13.60;95.40;;;11.54;100.00;101198.28;5011851;28;20060;-72
2021/09/23 00:56:17;;;;;;;44.65;24.10;;;13.70;95.50;;;11.52;100.00;101186.69;5011515;28;20192;-72
2021/09/23 00:58:44;;;;;;;38.92;22.58;;;13.60;95.20;;;11.54;100.00;101176.47;5011261;28;20080;-72
2021/09/23 01:01:13;;;;;;;37.17;22.25;;;13.70;95.30;;;11.55;100.00;101176.25;5014219;28;20057;-72
2021/09/23 01:03:40;;;;;;;41.05;22.88;;;13.70;95.30;;;11.57;100.00;101158.91;5011649;28;20453;-72
2021/09/23 01:06:08;;;;;;;39.28;22.77;;;13.70;95.30;;;11.59;100.00;101154.97;5028723;28;20037;-72
2021/09/23 01:08:38;;;;;;;41.45;22.70;;;13.70;95.30;;;11.55;100.00;101156.34;5011228;28;20053;-72
2021/09/23 01:11:07;;;;;;;39.75;21.77;;;13.70;95.30;;;11.58;100.00;101155.16;5027873;28;20137;-72
2021/09/23 01:13:35;;;;;;;37.58;21.20;;;13.70;95.40;;;11.56;100.00;101149.88;5029342;28;20049;-72
2021/09/23 01:16:07;;;;;;;33.13;20.05;;;13.70;95.40;;;11.58;100.00;101156.00;5011188;28;20053;-72
2021/09/23 01:19:00;;;;;;;37.85;21.55;;;13.70;95.50;;;11.56;100.00;101158.06;5027584;28;20057;-72
2021/09/23 01:21:33;;;;;;;36.10;19.27;;;13.70;95.50;;;11.53;100.00;101155.66;5011086;28;20045;-72
2021/09/23 01:24:02;;;;;;;32.78;19.55;;;13.70;95.40;;;11.51;100.00;101144.09;5010364;28;20123;-72
2021/09/23 01:26:30;;;;;;;34.38;18.63;;;13.70;95.30;;;11.52;100.00;101149.38;5010952;28;20520;-72
2021/09/23 01:29:04;;;;;;;32.33;19.02;;;13.70;95.30;;;11.52;100.00;101143.09;5010546;28;20209;-72
2021/09/23 01:31:38;;;;;;;34.95;20.30;;;13.70;95.30;;;11.50;100.00;101147.88;5010881;28;20053;-72
2021/09/23 01:34:05;;;;;;;36.35;20.55;;;13.70;95.20;;;11.53;100.00;101142.03;5010335;28;20053;-72
2021/09/23 01:36:34;;;;;;;32.22;19.02;;;13.70;95.20;;;11.53;100.00;101133.84;5010429;28;20052;-72
2021/09/23 01:39:02;;;;;;;37.10;20.52;;;13.70;95.30;;;11.58;100.00;101130.63;5010020;28;20103;-72
2021/09/23 01:41:29;;;;;;;37.03;20.75;;;13.70;95.40;;;11.56;100.00;101117.16;5010976;28;20053;-72
2021/09/23 01:43:57;;;;;;;37.30;20.08;;;13.70;95.40;;;11.58;100.00;101125.19;5000107;28;20046;-72
2021/09/23 01:46:24;;;;;;;32.40;19.65;;;13.70;95.50;;;11.60;100.00;101123.13;5008696;28;20042;-72
2021/09/23 01:49:09;;;;;;;35.58;20.02;;;13.70;95.60;;;11.58;100.00;101128.75;4995483;28;20792;-72
2021/09/23 01:51:39;;;;;;;38.42;19.65;;;13.70;95.60;;;11.57;100.00;101121.56;5028486;28;20042;-72
2021/09/23 01:54:07;;;;;;;33.90;19.48;;;13.70;95.40;;;11.58;100.00;101119.72;5010667;28;20057;-72
2021/09/23 01:56:34;;;;;;;38.20;20.17;;;13.70;95.50;;;11.54;100.00;101120.06;5010796;28;20049;-72
2021/09/23 01:59:02;;;;;;;30.92;19.17;;;13.70;95.40;;;11.55;100.00;101110.00;5010210;28;20084;-72
2021/09/23 02:01:29;;;;;;;30.35;18.38;;;13.70;95.40;;;11.58;100.00;101106.09;5010458;28;20049;-72
2021/09/23 02:03:57;;;;;;;32.70;18.23;;;13.70;95.40;;;11.59;100.00;101100.44;5010582;28;20043;-72
2021/09/23 02:06:47;;;;;;;35.83;18.27;;;13.70;95.40;;;11.61;100.00;101094.81;5010204;28;20076;-72
2021/09/23 02:09:15;;;;;;;33.28;19.00;;;13.70;95.40;;;11.64;100.00;101092.59;5027755;28;20076;-72
2021/09/23 02:11:43;;;;;;;33.58;17.95;;;13.70;95.40;;;11.61;100.00;101086.63;5010299;28;20075;-72
2021/09/23 02:14:10;;;;;;;31.15;19.00;;;13.70;95.50;;;11.60;100.00;101084.94;5009346;28;20406;-72
2021/09/23 02:16:37;;;;;;;27.08;17.17;;;13.70;95.40;;;11.61;100.00;101071.13;5009805;28;20049;-72
2021/09/23 02:19:34;;;;;;;30.95;17.55;;;13.70;95.40;;;11.62;100.00;101067.38;5018099;28;20509;-72
2021/09/23 02:22:03;;;;;;;37.65;17.63;;;13.70;95.40;;;11.60;100.00;101057.69;5009975;28;20056;-72
2021/09/23 02:24:31;;;;;;;26.42;17.52;;;13.70;95.40;;;11.59;100.00;101061.44;5009891;28;20068;-72
2021/09/23 02:26:58;;;;;;;30.88;17.27;;;13.70;95.40;;;11.57;100.00;101058.88;5027854;28;20057;-72
2021/09/23 02:29:26;;;;;;;27.20;15.40;;;13.70;95.50;;;11.54;100.00;101062.81;5009761;28;20094;-72
2021/09/23 02:31:56;;;;;;;26.40;16.00;;;13.70;95.40;;;11.55;100.00;101061.78;5009350;28;20049;-72
2021/09/23 02:34:24;;;;;;;29.52;15.32;;;13.70;95.40;;;11.52;100.00;101066.75;5009708;28;20402;-72
2021/09/23 02:36:51;;;;;;;26.33;14.77;;;13.70;95.30;;;11.49;100.00;101069.81;5010029;28;20757;-72
2021/09/23 02:39:20;;;;;;;27.40;15.50;;;13.70;95.40;;;11.50;100.00;101071.53;5009350;28;20069;-72
2021/09/23 02:41:48;;;;;;;24.77;15.15;;;13.70;95.50;;;11.46;100.00;101068.31;5009825;28;20148;-72
2021/09/23 02:44:15;;;;;;;30.23;14.82;;;13.70;95.40;;;11.48;100.00;101070.84;5009508;28;20053;-72
2021/09/23 02:46:43;;;;;;;21.15;13.27;;;13.70;95.40;;;11.49;100.00;101061.66;5005602;28;20054;-73
2021/09/23 02:49:10;;;;;;;19.45;12.68;;;13.60;95.30;;;11.48;100.00;101055.34;4994407;28;20074;-72
2021/09/23 02:51:37;;;;;;;20.25;12.95;;;13.60;95.30;;;11.50;100.00;101057.91;5026329;28;20432;-72
2021/09/23 02:54:05;;;;;;;29.40;13.52;;;13.60;95.30;;;11.47;100.00;101059.09;5009705;28;20264;-72
2021/09/23 02:56:34;;;;;;;20.65;12.73;;;13.60;95.30;;;11.47;100.00;101052.81;5026091;28;20041;-72
2021/09/23 02:59:01;;;;;;;19.58;12.38;;;13.60;95.30;;;11.46;100.00;101051.97;5009198;28;20049;-72
2021/09/23 03:01:28;;;;;;;20.52;12.05;;;13.60;95.40;;;11.47;100.00;101052.81;5008837;28;20558;-72
2021/09/23 03:03:56;;;;;;;28.40;13.13;;;13.60;95.40;;;11.47;100.00;101056.38;5008658;28;20547;-72
2021/09/23 03:06:24;;;;;;;24.27;12.43;;;13.60;95.50;;;11.45;100.00;101055.69;5008858;28;20056;-73
2021/09/23 03:08:51;;;;;;;18.02;11.98;;;13.60;95.50;;;11.42;100.00;101058.75;5008694;28;20045;-72
2021/09/23 03:11:19;;;;;;;21.17;11.90;;;13.60;95.40;;;11.42;100.00;101060.66;5008533;28;20723;-72
2021/09/23 03:13:48;;;;;;;23.98;12.07;;;13.60;95.40;;;11.37;100.00;101061.19;5004611;28;20065;-72
2021/09/23 03:16:15;;;;;;;18.90;11.88;;;13.60;95.40;;;11.41;100.00;101065.25;4972944;28;20907;-72
2021/09/23 03:18:45;;;;;;;18.33;12.00;;;13.60;95.50;;;11.45;100.00;101065.75;5026591;23;20045;-71
2021/09/23 03:21:12;;;;;;;25.33;12.45;;;13.60;95.50;;;11.41;100.00;101056.25;5042437;28;20531;-71
2021/09/23 03:23:39;;;;;;;30.58;14.32;;;13.60;95.50;;;11.39;100.00;101039.22;5042753;28;20057;-71
2021/09/23 03:26:07;;;;;;;23.55;13.10;;;13.60;95.70;;;11.41;100.00;101040.72;5026266;28;20053;-71
2021/09/23 03:28:35;;;;;;;19.98;12.77;;;13.60;95.70;;;11.43;100.00;101016.03;5042137;28;20049;-71
2021/09/23 03:31:04;;;;;;;22.02;12.43;;;13.60;95.70;;;11.46;100.00;101010.22;5043316;28;20408;-71
2021/09/23 03:33:31;;;;;;;23.95;13.23;;;13.60;95.70;;;11.46;100.00;101002.03;5046613;28;20122;-71
2021/09/23 03:35:59;;;;;;;23.95;13.05;;;13.60;95.80;;;11.45;100.00;100994.91;5046468;28;20057;-71
2021/09/23 03:38:26;;;;;;;25.83;14.00;;;13.60;95.80;;;11.47;100.00;101011.91;5030349;28;20069;-71
2021/09/23 03:40:54;;;;;;;27.40;14.95;;;13.60;95.90;;;11.43;100.00;101000.53;5031248;28;20045;-71
2021/09/23 03:43:22;;;;;;;27.13;12.65;;;13.60;95.80;;;11.40;100.00;100994.56;5031232;28;20591;-71
2021/09/23 03:45:50;;;;;;;22.33;13.57;;;13.60;95.80;;;11.39;100.00;101001.06;5046322;28;20164;-71
2021/09/23 03:48:20;;;;;;;25.27;13.82;;;13.60;95.80;;;11.40;100.00;100991.84;5045147;28;20057;-72
2021/09/23 03:50:48;;;;;;;22.13;13.30;;;13.60;95.70;;;11.29;100.00;100991.22;5018831;28;20049;-71
2021/09/23 03:53:17;;;;;;;25.10;13.13;;;13.60;95.80;;;11.29;100.00;100991.22;5029537;28;20041;-71
2021/09/23 03:55:44;;;;;;;21.13;12.98;;;13.60;95.80;;;11.27;100.00;100992.41;5029189;28;20077;-72
2021/09/23 03:58:12;;;;;;;21.27;13.05;;;13.60;95.70;;;11.25;100.00;100995.34;5028965;28;20049;-72
2021/09/23 04:00:39;;;;;;;24.40;12.88;;;13.60;95.70;;;11.24;100.00;100999.06;5029377;28;20115;-71
2021/09/23 04:03:07;;;;;;;20.90;12.57;;;13.60;95.60;;;11.27;100.00;101008.75;5029252;28;20588;-71
2021/09/23 04:05:35;;;;;;;21.95;12.65;;;13.50;95.60;;;11.23;100.00;100991.94;5029098;28;20144;-71
2021/09/23 04:08:04;;;;;;;22.80;12.80;;;13.50;95.60;;;11.22;100.00;100994.84;5028967;28;20082;-71
2021/09/23 04:10:32;;;;;;;20.52;12.80;;;13.50;95.60;;;11.17;100.00;100992.63;5028905;28;20632;-71
2021/09/23 04:13:00;;;;;;;22.80;12.60;;;13.50;95.50;;;11.14;100.00;100991.13;5021828;28;20050;-72
2021/09/23 04:15:27;;;;;;;21.08;13.40;;;13.50;95.50;;;11.12;100.00;100989.59;5009127;28;20717;-71
2021/09/23 04:18:00;;;;;;;23.40;12.65;;;13.40;95.40;;;11.10;100.00;100986.19;5008811;28;20054;-71
2021/09/23 04:20:28;;;;;;;17.85;11.93;;;13.40;95.50;;;11.07;100.00;100992.00;5008729;28;20046;-72
2021/09/23 04:22:57;;;;;;;17.95;11.90;;;13.40;95.60;;;11.14;100.00;100984.84;5008488;28;20732;-73
2021/09/23 04:25:26;;;;;;;19.25;12.13;;;13.40;95.60;;;11.10;100.00;100983.47;5008745;28;20068;-73
2021/09/23 04:27:55;;;;;;;22.25;12.43;;;13.40;95.50;;;11.13;100.00;100986.69;5025037;28;20056;-72
2021/09/23 04:30:22;;;;;;;18.27;12.18;;;13.40;95.70;;;11.06;100.00;100983.00;5008722;28;20045;-71
2021/09/23 04:32:50;;;;;;;24.60;12.80;;;13.40;95.70;;;10.97;100.00;100986.75;5011994;28;20053;-71
2021/09/23 04:35:17;;;;;;;24.00;12.77;;;13.40;95.70;;;10.95;100.00;100988.81;5028342;28;20132;-73
2021/09/23 04:37:44;;;;;;;20.38;11.77;;;13.40;95.80;;;10.98;100.00;101001.22;5044752;28;20148;-72
2021/09/23 04:40:14;;;;;;;22.13;11.63;;;13.40;95.80;;;11.02;100.00;100994.41;5044771;28;20077;-73
2021/09/23 04:42:42;;;;;;;21.30;12.02;;;13.40;95.90;;;10.97;100.00;100997.66;5047221;28;20053;-72
2021/09/23 04:45:11;;;;;;;23.55;12.48;;;13.40;95.90;;;10.92;100.00;100998.16;5027024;28;20085;-72
2021/09/23 04:47:45;;;;;;;17.88;11.13;;;13.40;95.90;;;10.91;100.00;100987.47;5045017;28;20588;-72
2021/09/23 04:50:13;;;;;;;22.27;11.48;;;13.40;95.90;;;10.90;100.00;100996.66;5039902;28;20543;-72
2021/09/23 04:52:40;;;;;;;21.38;11.70;;;13.40;96.00;;;10.89;100.00;101000.38;5036490;28;20136;-73
2021/09/23 04:55:09;;;;;;;20.73;11.13;;;13.30;96.00;;;10.94;100.00;101004.28;5007703;28;20414;-73
2021/09/23 04:57:39;;;;;;;18.63;11.63;;;13.30;96.20;;;10.99;100.00;101000.22;5009371;28;20046;-70
2021/09/23 05:00:10;;;;;;;20.65;11.57;;;13.30;96.30;;;10.92;100.00;101003.63;5024096;28;20053;-72
2021/09/23 05:02:48;;;;;;;19.33;11.60;;;13.30;96.20;;;10.88;100.00;100991.38;5008232;28;20053;-73
2021/09/23 05:05:15;;;;;;;20.38;11.60;;;13.30;96.20;;;10.94;100.00;100993.41;5024494;28;20056;-72
2021/09/23 05:07:44;;;;;;;17.02;11.15;;;13.30;96.30;;;10.96;100.00;100985.91;5008015;28;20042;-71
2021/09/23 05:10:13;;;;;;;21.08;12.18;;;13.30;96.30;;;10.98;100.00;100993.06;5024000;28;20512;-71
2021/09/23 05:12:46;;;;;;;20.63;11.90;;;13.30;96.40;;;10.94;100.00;100995.28;5024151;28;20141;-71
2021/09/23 05:15:13;;;;;;;22.60;11.07;;;13.30;96.30;;;10.95;100.00;101006.00;5009356;28;20053;-74
2021/09/23 05:17:41;;;;;;;22.10;10.60;;;13.30;96.40;;;10.93;100.00;101008.06;5009064;28;20132;-73
2021/09/23 05:20:10;;;;;;;19.60;11.18;;;13.30;96.30;;;10.92;100.00;101006.34;5025095;28;20069;-72
2021/09/23 05:22:38;;;;;;;21.02;11.52;;;13.30;96.30;;;10.92;100.00;100998.16;5010625;28;20780;-71
2021/09/23 05:25:07;;;;;;;20.52;11.48;;;13.30;96.40;;;10.95;100.00;100999.72;5028501;28;20069;-71
2021/09/23 05:27:34;;;;;;;22.60;11.07;;;13.30;96.40;;;10.97;100.00;100992.22;5028713;28;20069;-71
2021/09/23 05:30:04;;;;;;;21.45;11.25;;;13.30;96.30;;;11.00;100.00;100982.84;5028386;28;20115;-71
2021/09/23 05:32:32;;;;;;;19.55;11.70;;;13.30;96.40;;;10.98;100.00;100987.59;5028442;28;20067;-72
2021/09/23 05:35:02;;;;;;;18.33;11.00;;;13.30;96.30;;;11.02;100.00;100983.50;5028498;28;20048;-72
2021/09/23 05:37:29;;;;;;;18.13;11.13;;;13.30;96.40;;;11.02;100.00;100987.06;5010811;28;20057;-73
2021/09/23 05:39:56;;;;;;;19.02;11.07;;;13.30;96.30;;;11.04;100.00;100987.78;5026790;28;20077;-72
2021/09/23 05:42:23;;;;;;;20.70;10.52;;;13.30;96.40;;;11.08;100.00;100985.50;5028262;28;20069;-72
2021/09/23 05:44:51;;;;;;;17.30;10.85;;;13.30;96.40;;;11.10;100.00;100980.72;5038910;28;20040;-72
2021/09/23 05:47:20;;;;;;;18.85;10.32;;;13.30;96.20;;;11.14;100.00;100998.44;5050010;28;20106;-72
2021/09/23 05:49:47;;;;;;;15.82;10.15;;;13.30;96.30;;;11.12;100.00;100997.78;5066724;28;20772;-72
2021/09/23 05:52:16;;;;;;;19.80;11.18;;;13.40;96.30;;;11.16;100.00;100993.69;5050020;28;20101;-72
2021/09/23 05:54:44;;;;;;;20.83;10.95;;;13.30;96.30;;;11.18;100.00;100983.44;5047342;28;20047;-72
2021/09/23 05:57:19;;;;;;;18.02;10.35;;;13.30;96.40;;;11.22;100.00;100976.63;5045150;28;20033;-72
2021/09/23 05:59:46;;;;;;;15.25;9.88;;;13.40;96.40;;;11.24;100.00;100968.28;5048184;28;20049;-72
2021/09/23 06:02:14;;;;;;;17.02;10.38;;;13.40;96.30;;;11.35;100.00;100951.53;5047661;28;20041;-72
2021/09/23 06:04:43;;;;;;;17.48;10.45;;;13.40;96.20;;;11.49;100.00;100963.53;5047470;28;20048;-72
2021/09/23 06:07:10;;;;;;;20.42;10.77;;;13.40;96.40;;;11.51;100.00;100950.56;5047469;28;20072;-73
2021/09/23 06:09:38;;;;;;;19.30;9.73;;;13.50;96.40;;;11.55;100.00;100949.16;5047302;28;20053;-73
2021/09/23 06:12:07;;;;;;;19.65;10.48;;;13.50;96.40;;;11.59;100.00;100942.31;5047862;28;20132;-73
2021/09/23 06:14:35;;;;;;;18.98;10.15;;;13.60;96.40;;;11.64;100.00;100939.91;5029579;28;20095;-73
2021/09/23 06:17:04;;;;;;;15.85;10.05;;;13.60;96.20;;;11.71;100.00;100935.44;5047577;28;20140;-72
2021/09/23 06:19:31;;;;;;;18.10;9.80;;;13.60;96.10;;;11.73;100.00;100944.28;5046912;28;20518;-72
2021/09/23 06:22:00;;;;;;;18.00;10.25;;;13.70;96.20;;;11.77;99.78;100933.03;5029539;28;20095;-71
2021/09/23 06:24:27;;;;;;;18.70;9.35;;;13.70;96.00;;;11.79;99.68;100937.25;5064028;28;20056;-72
2021/09/23 06:26:55;;;;;;;14.00;9.20;;;13.70;96.10;;;11.84;99.93;100950.31;5067436;28;20048;-71
2021/09/23 06:29:22;;;;;;;15.05;8.68;;;13.70;96.10;;;11.85;99.89;100941.13;5067243;28;20052;-72
2021/09/23 06:31:49;;;;;;;16.45;9.30;;;13.80;96.00;;;11.89;99.63;100931.53;5067348;28;20045;-71
2021/09/23 06:34:17;;;;;;;17.00;9.55;;;13.80;96.00;;;11.95;99.64;100936.28;5049160;28;20048;-71
2021/09/23 06:36:45;;;;;;;15.52;8.77;;;13.80;95.90;;;12.09;99.01;100940.13;5049203;28;20400;-72
2021/09/23 06:39:14;;;;;;;13.85;8.55;;;13.90;95.90;;;12.21;98.23;100935.06;5048936;28;20547;-72
2021/09/23 06:41:41;;;;;;;17.27;8.98;;;13.90;95.60;;;12.33;97.93;100933.56;5067184;28;20056;-72
2021/09/23 06:44:08;;;;;;;12.30;8.20;;;13.90;95.80;;;12.37;98.00;100926.69;5067102;28;20044;-72
2021/09/23 06:46:36;;;;;;;16.42;9.95;;;14.00;95.80;;;12.45;97.18;100923.03;5063213;28;20049;-72
2021/09/23 06:49:04;;;;;;;18.58;9.25;;;14.10;95.60;;;12.53;97.00;100917.50;5048989;28;20068;-73
2021/09/23 06:51:31;;;;;;;15.23;9.35;;;14.10;95.60;;;12.63;96.35;100925.41;5046897;28;20049;-72
2021/09/23 06:53:58;;;;;;;14.52;8.85;;;14.20;95.10;;;12.71;95.86;100930.75;5045737;28;20041;-72
2021/09/23 06:56:27;;;;;;;15.80;9.15;;;14.20;95.40;;;12.77;95.94;100927.28;5046560;28;20098;-72
2021/09/23 06:58:54;;;;;;;15.27;8.82;;;14.30;95.30;;;12.87;95.32;100930.59;5046774;28;20047;-72
2021/09/23 07:01:33;;;;;;;16.30;9.13;;;14.30;95.00;;;12.91;94.77;100920.13;5047240;28;20084;-72
2021/09/23 07:04:19;;;;;;;17.25;9.43;;;14.40;94.70;;;13.04;93.80;100927.63;5047772;28;20056;-72
2021/09/23 07:07:05;;;;;;;13.90;8.65;;;14.40;94.00;;;13.12;93.47;100922.06;5050834;28;20068;-72
2021/09/23 07:09:40;;;;;;;17.48;9.38;;;14.50;94.40;;;13.19;93.54;100914.78;5049465;28;20053;-72
2021/09/23 07:12:16;;;;;;;17.85;9.23;;;14.50;94.30;;;13.32;92.29;100913.28;5032770;28;20067;-72
2021/09/23 07:14:43;;;;;;;15.60;9.02;;;14.60;93.80;;;13.39;92.28;100912.31;5049627;28;20597;-72
2021/09/23 07:17:12;;;;;;;13.80;9.23;;;14.70;93.80;;;13.49;91.09;100921.03;5032843;28;20053;-72
2021/09/23 07:19:41;;;;;;;18.65;9.07;;;14.70;93.50;;;13.53;91.53;100917.94;5050631;28;20052;-72
2021/09/23 07:22:09;;;;;;;12.80;8.93;;;14.80;93.70;;;13.54;91.15;100915.00;5050819;28;20041;-72
2021/09/23 07:24:37;;;;;;;14.98;9.93;;;14.80;93.60;;;13.57;91.64;100906.41;5061349;28;20047;-72
2021/09/23 07:27:06;;;;;;;16.67;9.25;;;14.90;93.60;;;13.60;91.66;100914.22;5039584;28;20087;-72
2021/09/23 07:29:35;;;;;;;19.33;9.30;;;14.90;93.50;;;13.64;90.71;100917.41;5048835;28;20063;-72
2021/09/23 07:32:02;;;;;;;19.10;9.00;;;15.00;92.90;;;13.75;90.60;100910.59;5050694;28;20656;-73
2021/09/23 07:34:29;;;;;;;16.20;9.15;;;15.00;92.90;;;13.86;89.50;100912.81;5048996;28;20045;-72
2021/09/23 07:36:57;;;;;;;14.75;8.27;;;15.10;92.90;;;14.00;88.95;100906.38;5032024;28;20127;-72
2021/09/23 07:39:24;;;;;;;22.30;9.27;;;15.10;92.10;;;14.14;88.68;100906.50;5029160;28;20045;-72
2021/09/23 07:41:52;;;;;;;19.10;10.18;;;15.20;92.40;;;14.24;88.46;100904.25;5039452;28;20080;-72
2021/09/23 07:44:22;;;;;;;17.65;9.60;;;15.30;92.00;;;14.36;87.89;100912.78;5050288;28;20500;-72
2021/09/23 07:46:51;;;;;;;17.73;9.07;;;15.40;91.70;;;14.47;87.44;100920.44;5032206;28;20053;-72
2021/09/23 07:49:19;;;;;;;18.10;9.20;;;15.40;91.50;;;14.58;86.43;100919.91;5031948;28;20069;-72
2021/09/23 07:51:46;;;;;;;16.02;9.50;;;15.50;91.30;;;14.74;86.45;100916.00;5032106;28;20148;-72
2021/09/23 07:54:14;;;;;;;13.40;8.48;;;15.60;91.10;;;14.87;86.09;100917.97;5050024;28;20041;-72
2021/09/23 07:56:43;;;;;;;17.17;9.02;;;15.70;91.20;;;14.99;85.59;100924.53;5048538;28;20051;-72
2021/09/23 07:59:11;;;;;;;15.88;8.50;;;15.80;90.90;;;15.13;85.90;100919.97;5031317;28;20083;-72
2021/09/23 08:01:39;;;;;;;15.90;8.93;;;15.90;91.40;;;15.20;85.66;100907.13;5031830;28;20049;-72
2021/09/23 08:04:08;;;;;;;19.38;8.55;;;16.00;91.10;;;15.20;86.03;100901.66;5031612;28;20037;-72
2021/09/23 08:06:35;;;;;;;16.55;9.30;;;16.10;91.10;;;15.19;84.68;100904.59;5026695;28;20057;-72
2021/09/23 08:09:03;;;;;;;13.63;8.82;;;16.10;90.00;;;15.16;84.53;100897.63;5030608;28;20059;-72
2021/09/23 08:11:31;;;;;;;15.95;9.38;;;16.20;89.90;;;15.17;85.97;100893.84;5047273;28;20048;-72
2021/09/23 08:14:08;;;;;;;16.23;9.35;;;16.30;90.20;;;15.19;84.74;100880.78;5031862;28;20049;-72
2021/09/23 08:16:37;;;;;;;18.60;9.48;;;16.30;90.00;;;15.19;84.61;100875.28;5031054;28;20045;-72
2021/09/23 08:19:23;;;;;;;14.45;8.88;;;16.40;89.70;;;15.23;84.62;100881.19;5031131;28;20631;-72
2021/09/23 08:22:12;;;;;;;20.05;9.70;;;16.40;89.30;;;15.30;84.58;100867.50;5031468;28;20053;-72
2021/09/23 08:24:39;;;;;;;16.92;8.85;;;16.50;89.30;;;15.35;84.30;100867.75;5031035;28;20057;-72
2021/09/23 08:27:07;;;;;;;15.70;9.40;;;16.50;88.90;;;15.38;83.93;100864.56;5047333;28;20053;-72
2021/09/23 08:29:34;;;;;;;18.13;9.50;;;16.60;88.40;;;15.36;84.26;100855.69;5047756;28;20059;-72
2021/09/23 08:32:02;;;;;;;14.85;9.32;;;16.60;88.60;;;15.39;84.15;100852.56;5031692;28;20045;-72
2021/09/23 08:34:31;;;;;;;15.95;8.88;;;16.60;88.40;;;15.47;83.07;100844.13;5031291;28;20060;-72
2021/09/23 08:36:58;;;;;;;17.98;9.48;;;16.70;87.70;;;15.55;82.46;100846.66;5028990;28;20091;-72
2021/09/23 08:39:25;;;;;;;18.10;9.52;;;16.80;87.10;;;15.61;82.29;100834.88;5030880;28;20049;-72
2021/09/23 08:41:54;;;;;;;15.15;8.50;;;16.80;87.00;;;15.69;81.69;100835.69;5033709;28;20140;-72
2021/09/23 08:44:22;;;;;;;15.10;9.10;;;16.90;86.50;;;15.78;81.44;100831.72;5031055;28;20538;-72
2021/09/23 08:46:50;;;;;;;17.48;8.80;;;17.00;86.50;;;15.87;82.51;100833.19;5032149;28;20455;-72
2021/09/23 08:49:18;;;;;;;17.00;8.88;;;17.10;87.30;;;15.94;81.00;100831.31;5054786;28;20049;-72
2021/09/23 08:51:51;;;;;;;15.48;8.98;;;17.10;86.00;;;15.99;80.74;100825.16;5031203;28;20056;-72
2021/09/23 08:54:19;;;;;;;16.50;8.90;;;17.20;86.00;;;16.01;79.55;100818.41;5049282;28;20504;-72
2021/09/23 08:56:48;;;;;;;16.27;8.27;;;17.20;84.90;;;16.08;81.07;100815.66;5030272;28;20143;-72
2021/09/23 08:59:16;;;;;;;14.40;8.52;;;17.30;86.10;;;16.13;81.36;100804.88;5046391;28;20052;-72
2021/09/23 09:01:50;;;;;;;14.40;7.78;;;17.40;85.90;;;16.18;81.09;100802.34;5043736;28;20052;-71
2021/09/23 09:04:39;;;;;;;15.70;8.70;;;17.50;85.90;;;16.21;79.96;100795.56;5051225;28;20049;-72
2021/09/23 09:07:29;;;;;;;13.40;7.90;;;17.50;84.60;;;16.29;80.18;100803.56;5060457;28;20053;-72
2021/09/23 09:10:34;;;;;;;13.32;8.05;;;17.60;84.90;;;16.28;79.09;100790.91;5047971;28;20056;-72
2021/09/23 09:13:03;;;;;;;16.77;8.10;;;17.60;83.70;;;16.33;80.08;100793.81;5031505;28;20073;-72
2021/09/23 09:15:34;;;;;;;14.38;7.57;;;17.70;84.90;;;16.37;79.76;100791.50;5031343;28;20171;-72
2021/09/23 09:18:17;;;;;;;11.23;7.07;;;17.70;84.70;;;16.40;79.00;100800.16;5031341;28;20454;-72
2021/09/23 09:20:57;;;;;;;12.50;6.70;;;17.80;84.00;;;16.46;79.07;100781.13;5046698;22;20049;-68
2021/09/23 09:23:38;;;;;;;12.63;6.93;;;17.80;83.90;;;16.49;78.97;100765.06;5027130;28;20041;-68
2021/09/23 09:26:08;;;;;;;13.38;6.80;;;17.90;83.90;;;16.57;79.01;100763.97;5027879;28;20203;-68
2021/09/23 09:28:47;;;;;;;14.32;7.18;;;17.90;83.90;;;16.59;78.18;100768.16;5027058;28;20069;-68
2021/09/23 09:31:15;;;;;;;11.73;6.40;;;18.00;83.00;;;16.62;77.94;100769.66;5044350;28;20570;-68
2021/09/23 09:33:45;;;;;;;14.45;6.55;;;18.00;83.10;;;16.68;78.76;100782.50;5029588;28;20630;-68
2021/09/23 09:36:30;;;;;;;11.23;5.68;;;18.00;83.60;;;16.75;77.56;100780.59;5027819;28;20049;-68
2021/09/23 09:39:03;;;;;;;20.85;6.57;;;18.10;83.00;;;16.81;77.32;100778.84;5027391;28;20098;-69
2021/09/23 09:41:35;;;;;;;13.02;6.82;;;18.10;82.40;;;16.83;76.89;100770.41;5027952;28;20045;-68
2021/09/23 09:44:08;;;;;;;12.00;6.20;;;18.20;82.40;;;16.85;76.97;100784.78;5026114;28;20126;-68
2021/09/23 09:46:40;;;;;;;11.68;6.35;;;18.20;82.40;;;16.91;77.60;100786.66;5027479;28;20046;-68
2021/09/23 09:49:10;;;;;;;11.75;6.75;;;18.20;82.70;;;17.00;76.17;100796.31;5028486;28;20041;-68
2021/09/23 09:51:40;;;;;;;12.10;6.28;;;18.30;81.90;;;17.04;76.34;100783.84;5044136;28;20049;-68
2021/09/23 09:54:13;;;;;;;13.05;6.03;;;18.30;82.10;;;17.10;75.92;100782.94;5025497;28;20073;-68
2021/09/23 09:56:42;;;;;;;11.15;6.65;;;18.40;81.80;;;17.17;75.86;100771.88;5027408;28;20516;-68
2021/09/23 09:59:14;;;;;;;13.45;6.25;;;18.40;81.50;;;17.26;75.94;100776.06;5043607;28;20560;-68
2021/09/23 10:01:49;;;;;;;12.13;6.50;;;18.40;82.10;;;17.38;75.30;100784.44;5043362;28;20053;-68
2021/09/23 10:04:19;;;;;;;15.80;6.55;;;18.50;81.60;;;17.46;73.93;100780.56;5042391;28;20046;-69
2021/09/23 10:06:47;;;;;;;10.07;5.80;;;18.60;80.80;;;17.53;74.42;100770.34;5027102;28;20044;-68
2021/09/23 10:09:17;;;;;;;10.25;6.32;;;18.60;81.30;;;17.63;74.92;100753.31;5028460;28;20045;-68